Time;durP1;ratioP1;P1;durP2;ratioP2;P2;SDS_P1;SDS_P2;PMS_P1;PMS_P2;Temp;Humidity;BMP_temperature;BMP_pressure;BME280_temperature;BME280_humidity;BME280_pressure;Samples;Min_cycle;Max_cycle;Signal;HPM_P1;HPM_P2
2022/11/17 00:00:21;;;;;;;1.20;0.20;;;;;;;;;;6127131;23;20340;-45
2022/11/17 00:02:49;;;;;;;1.10;0.20;;;;;;;;;;6157440;23;20017;-47
2022/11/17 00:05:16;;;;;;;1.88;0.30;;;;;;;;;;6117828;23;20284;-49
2022/11/17 00:07:43;;;;;;;1.30;0.20;;;;;;;;;;6160656;23;20542;-46
2022/11/17 00:10:10;;;;;;;1.27;0.27;;;;;;;;;;6153282;23;20083;-46
2022/11/17 00:15:20;;;;;;;1.10;0.20;;;;;;;;;;6160267;23;20120;-46
2022/11/17 00:17:47;;;;;;;1.08;0.20;;;;;;;;;;6160668;23;20021;-46
2022/11/17 00:23:00;;;;;;;1.10;0.20;;;;;;;;;;6155128;23;20027;-48
2022/11/17 00:25:26;;;;;;;1.30;0.20;;;;;;;;;;6133387;23;20029;-46
2022/11/17 00:27:53;;;;;;;1.08;0.20;;;;;;;;;;6150615;23;20024;-49
2022/11/17 00:35:53;;;;;;;1.20;0.20;;;;;;;;;;6131268;23;20694;-47
2022/11/17 00:38:20;;;;;;;1.30;0.20;;;;;;;;;;6135456;23;20029;-48
2022/11/17 00:40:46;;;;;;;1.30;0.20;;;;;;;;;;6127209;23;20029;-50
2022/11/17 00:43:13;;;;;;;1.40;0.25;;;;;;;;;;6164516;23;20076;-47
2022/11/17 00:45:40;;;;;;;1.17;0.20;;;;;;;;;;6150006;23;20017;-45
2022/11/17 00:48:06;;;;;;;1.10;0.20;;;;;;;;;;6161379;23;20032;-47
2022/11/17 00:50:33;;;;;;;1.05;0.20;;;;;;;;;;6154726;23;20021;-48
2022/11/17 00:53:01;;;;;;;1.38;0.30;;;;;;;;;;6161907;23;20060;-50
2022/11/17 00:55:28;;;;;;;1.10;0.20;;;;;;;;;;6153493;23;20333;-47
2022/11/17 00:57:54;;;;;;;1.20;0.20;;;;;;;;;;6159800;23;20348;-48
2022/11/17 01:00:21;;;;;;;1.20;0.20;;;;;;;;;;6159344;23;20100;-48
2022/11/17 01:02:48;;;;;;;1.33;0.20;;;;;;;;;;6158727;23;20309;-47
2022/11/17 01:05:14;;;;;;;1.40;0.22;;;;;;;;;;6123102;23;20663;-48
2022/11/17 01:07:41;;;;;;;1.13;0.20;;;;;;;;;;6161934;23;20013;-47
2022/11/17 01:10:10;;;;;;;2.00;0.75;;;;;;;;;;6129664;23;20029;-47
2022/11/17 01:12:36;;;;;;;1.40;0.20;;;;;;;;;;6161968;23;20568;-48
2022/11/17 01:15:03;;;;;;;0.95;0.17;;;;;;;;;;6128611;23;20395;-44
2022/11/17 01:17:30;;;;;;;1.58;0.40;;;;;;;;;;6161449;23;20513;-47
2022/11/17 01:19:56;;;;;;;1.30;0.40;;;;;;;;;;6158755;23;20021;-46
2022/11/17 01:22:23;;;;;;;1.40;0.30;;;;;;;;;;6157994;23;20020;-46
2022/11/17 01:24:50;;;;;;;1.07;0.20;;;;;;;;;;6131216;23;20147;-46
2022/11/17 01:27:17;;;;;;;1.00;0.20;;;;;;;;;;6160927;23;20013;-46
2022/11/17 01:29:44;;;;;;;4.50;0.30;;;;;;;;;;6155634;23;20028;-47
2022/11/17 01:32:10;;;;;;;2.58;0.60;;;;;;;;;;6162276;23;20470;-46
2022/11/17 01:34:38;;;;;;;1.10;0.20;;;;;;;;;;6155434;23;20017;-45
2022/11/17 01:37:19;;;;;;;1.10;0.20;;;;;;;;;;6162573;23;20351;-46
2022/11/17 01:39:46;;;;;;;6.68;1.13;;;;;;;;;;6160352;23;20032;-48
2022/11/17 01:42:14;;;;;;;1.40;0.20;;;;;;;;;;6158668;23;20032;-48
2022/11/17 01:44:55;;;;;;;1.60;0.40;;;;;;;;;;6133863;23;20033;-46
2022/11/17 01:47:24;;;;;;;1.30;0.30;;;;;;;;;;6155418;23;20263;-45
2022/11/17 01:49:52;;;;;;;1.27;0.20;;;;;;;;;;6131620;23;20041;-47
2022/11/17 01:52:19;;;;;;;1.10;0.20;;;;;;;;;;6157599;23;20435;-45
2022/11/17 01:54:47;;;;;;;1.13;0.20;;;;;;;;;;6163247;23;20013;-48
2022/11/17 01:57:14;;;;;;;0.90;0.20;;;;;;;;;;6128781;23;20017;-45
2022/11/17 01:59:42;;;;;;;1.30;0.20;;;;;;;;;;6135382;23;20247;-48
2022/11/17 02:02:10;;;;;;;1.33;0.30;;;;;;;;;;6132277;23;20068;-46
2022/11/17 02:04:38;;;;;;;1.58;0.38;;;;;;;;;;6162162;23;20884;-46
2022/11/17 02:07:07;;;;;;;1.60;0.30;;;;;;;;;;6126815;23;20443;-46
2022/11/17 02:09:37;;;;;;;1.25;0.20;;;;;;;;;;6161963;23;20032;-45
2022/11/17 02:12:04;;;;;;;1.65;0.65;;;;;;;;;;6156938;23;20431;-45
2022/11/17 02:14:30;;;;;;;1.30;0.20;;;;;;;;;;6163511;23;20024;-45
2022/11/17 02:16:57;;;;;;;1.38;0.38;;;;;;;;;;6151984;23;20017;-45
2022/11/17 02:19:25;;;;;;;2.08;0.40;;;;;;;;;;6156048;23;20017;-46
2022/11/17 02:22:03;;;;;;;1.67;0.50;;;;;;;;;;6152777;23;20427;-46
2022/11/17 02:24:53;;;;;;;1.65;0.30;;;;;;;;;;6156483;23;20032;-46
2022/11/17 02:27:41;;;;;;;1.20;0.20;;;;;;;;;;6161860;23;20024;-44
2022/11/17 02:30:10;;;;;;;1.10;0.20;;;;;;;;;;6153795;23;20094;-45
2022/11/17 02:32:41;;;;;;;1.42;0.22;;;;;;;;;;6157166;23;20023;-46
2022/11/17 02:35:10;;;;;;;1.40;0.30;;;;;;;;;;6162538;23;20068;-45
2022/11/17 02:37:40;;;;;;;1.35;0.32;;;;;;;;;;6156112;23;20752;-44
2022/11/17 02:40:08;;;;;;;1.93;0.50;;;;;;;;;;6162127;23;20017;-45
2022/11/17 02:45:25;;;;;;;1.42;0.30;;;;;;;;;;6159031;23;20033;-45
2022/11/17 02:47:53;;;;;;;1.98;0.98;;;;;;;;;;6159049;23;20028;-45
2022/11/17 02:50:21;;;;;;;1.90;0.40;;;;;;;;;;6154191;23;20419;-45
2022/11/17 02:52:47;;;;;;;1.80;0.30;;;;;;;;;;6162593;23;20017;-45
2022/11/17 02:55:14;;;;;;;1.30;0.25;;;;;;;;;;6158195;23;20448;-45
2022/11/17 02:57:40;;;;;;;1.10;0.20;;;;;;;;;;6161533;23;20530;-46
2022/11/17 03:00:08;;;;;;;1.92;0.57;;;;;;;;;;6153749;23;20013;-45
2022/11/17 03:02:47;;;;;;;1.90;0.50;;;;;;;;;;6162754;23;20013;-44
2022/11/17 03:05:15;;;;;;;1.83;0.50;;;;;;;;;;6151712;23;20875;-45
2022/11/17 03:07:58;;;;;;;1.25;0.22;;;;;;;;;;6164792;23;20017;-45
2022/11/17 03:10:28;;;;;;;1.35;0.40;;;;;;;;;;6152717;23;20087;-47
2022/11/17 03:12:59;;;;;;;1.48;0.40;;;;;;;;;;6154852;23;20020;-44
2022/11/17 03:15:28;;;;;;;1.70;0.40;;;;;;;;;;6156388;23;20021;-45
2022/11/17 03:18:02;;;;;;;1.73;0.47;;;;;;;;;;6155548;23;20020;-46
2022/11/17 03:20:33;;;;;;;1.45;0.28;;;;;;;;;;6158786;23;20017;-45
2022/11/17 03:23:01;;;;;;;2.08;0.35;;;;;;;;;;6155675;23;20059;-45
2022/11/17 03:25:32;;;;;;;2.03;0.50;;;;;;;;;;6135296;23;20032;-44
2022/11/17 03:28:02;;;;;;;1.70;0.63;;;;;;;;;;6159082;23;20013;-44
2022/11/17 03:30:29;;;;;;;1.57;0.30;;;;;;;;;;6162456;23;20016;-48
2022/11/17 03:32:58;;;;;;;1.20;0.40;;;;;;;;;;6153976;23;20013;-44
2022/11/17 03:35:28;;;;;;;1.27;0.30;;;;;;;;;;6155945;23;20020;-46
2022/11/17 03:37:57;;;;;;;1.17;0.20;;;;;;;;;;6156181;23;20356;-47
2022/11/17 03:40:25;;;;;;;1.73;0.20;;;;;;;;;;6162047;23;20017;-45
2022/11/17 03:42:53;;;;;;;1.33;0.30;;;;;;;;;;6166738;23;20017;-44
2022/11/17 03:45:21;;;;;;;1.20;0.38;;;;;;;;;;6156724;23;20013;-46
2022/11/17 03:47:48;;;;;;;0.98;0.17;;;;;;;;;;6165458;23;20021;-45
2022/11/17 03:50:17;;;;;;;1.60;0.40;;;;;;;;;;6154950;23;20439;-45
2022/11/17 03:52:45;;;;;;;1.20;0.20;;;;;;;;;;6161281;23;20084;-45
2022/11/17 03:55:13;;;;;;;1.10;0.20;;;;;;;;;;6159312;23;20025;-44
2022/11/17 03:57:43;;;;;;;3.10;0.57;;;;;;;;;;6163580;23;20021;-44
2022/11/17 04:00:11;;;;;;;0.90;0.15;;;;;;;;;;6160831;23;20016;-44
2022/11/17 04:02:40;;;;;;;1.13;0.20;;;;;;;;;;6156208;23;20024;-46
2022/11/17 04:05:06;;;;;;;1.10;0.30;;;;;;;;;;6164761;23;20032;-48
2022/11/17 04:07:33;;;;;;;1.27;0.20;;;;;;;;;;6165891;23;20017;-45
2022/11/17 04:10:01;;;;;;;1.10;0.20;;;;;;;;;;6160293;23;20053;-44
2022/11/17 04:17:56;;;;;;;1.20;0.20;;;;;;;;;;6164588;23;20068;-47
2022/11/17 04:20:23;;;;;;;1.20;0.20;;;;;;;;;;6161345;23;20498;-44
2022/11/17 04:23:05;;;;;;;1.02;0.20;;;;;;;;;;6164153;23;20075;-47
2022/11/17 04:28:37;;;;;;;1.30;0.20;;;;;;;;;;6155751;23;20040;-44
2022/11/17 04:31:04;;;;;;;3.03;1.00;;;;;;;;;;6166416;23;20020;-45
2022/11/17 04:33:30;;;;;;;1.30;0.27;;;;;;;;;;6159713;23;20013;-45
2022/11/17 04:35:57;;;;;;;1.40;0.30;;;;;;;;;;6162636;23;20035;-45
2022/11/17 04:38:23;;;;;;;1.20;0.20;;;;;;;;;;6158388;23;20417;-45
2022/11/17 04:43:37;;;;;;;1.42;0.22;;;;;;;;;;6137220;23;20029;-48
2022/11/17 04:46:03;;;;;;;1.50;0.70;;;;;;;;;;6164029;23;20027;-44
2022/11/17 04:48:30;;;;;;;1.00;0.20;;;;;;;;;;6153993;23;20012;-46
2022/11/17 04:50:56;;;;;;;1.23;0.20;;;;;;;;;;6147442;23;20017;-46
2022/11/17 04:53:23;;;;;;;1.30;0.30;;;;;;;;;;6136798;23;20021;-45
2022/11/17 04:55:51;;;;;;;0.80;0.10;;;;;;;;;;6164729;23;20013;-45
2022/11/17 04:58:18;;;;;;;1.00;0.20;;;;;;;;;;6150828;23;20055;-46
2022/11/17 05:00:44;;;;;;;1.38;0.30;;;;;;;;;;6165046;23;20103;-47
2022/11/17 05:03:11;;;;;;;1.20;0.20;;;;;;;;;;6161949;23;20499;-45
2022/11/17 05:05:38;;;;;;;1.20;0.30;;;;;;;;;;6163438;23;20017;-46
2022/11/17 05:08:04;;;;;;;1.23;0.20;;;;;;;;;;6164969;23;20491;-45
2022/11/17 05:18:43;;;;;;;1.90;0.65;;;;;;;;;;6161052;23;20645;-46
2022/11/17 05:21:10;;;;;;;1.10;0.20;;;;;;;;;;6164650;23;20017;-45
2022/11/17 05:23:55;;;;;;;1.30;0.20;;;;;;;;;;6161337;23;20025;-46
2022/11/17 05:26:22;;;;;;;1.10;0.30;;;;;;;;;;6164665;23;20017;-48
2022/11/17 05:28:51;;;;;;;1.30;0.28;;;;;;;;;;6160563;23;20036;-46
2022/11/17 05:31:17;;;;;;;1.92;0.38;;;;;;;;;;6164467;23;20017;-49
2022/11/17 05:33:44;;;;;;;1.33;0.30;;;;;;;;;;6157358;23;20545;-45
2022/11/17 05:36:10;;;;;;;1.40;0.20;;;;;;;;;;6161492;23;20103;-45
2022/11/17 05:38:37;;;;;;;1.70;0.35;;;;;;;;;;6154855;23;20409;-49
2022/11/17 05:41:04;;;;;;;1.27;0.20;;;;;;;;;;6163103;23;20428;-45
2022/11/17 05:43:30;;;;;;;1.10;0.20;;;;;;;;;;6154378;23;20321;-47
2022/11/17 05:45:58;;;;;;;1.05;0.20;;;;;;;;;;6167880;23;20372;-47
2022/11/17 05:48:25;;;;;;;1.40;0.30;;;;;;;;;;6157985;23;20538;-47
2022/11/17 05:50:54;;;;;;;5.43;0.57;;;;;;;;;;6160559;23;20044;-45
2022/11/17 05:53:20;;;;;;;2.08;0.70;;;;;;;;;;6162625;23;20067;-46
2022/11/17 05:55:47;;;;;;;1.35;0.25;;;;;;;;;;6161402;23;20017;-45
2022/11/17 05:58:15;;;;;;;1.73;0.75;;;;;;;;;;6157833;23;20091;-47
2022/11/17 06:00:42;;;;;;;3.93;0.47;;;;;;;;;;6162087;23;20084;-47
2022/11/17 06:03:13;;;;;;;1.70;0.60;;;;;;;;;;6161698;23;20443;-46
2022/11/17 06:05:40;;;;;;;1.67;0.30;;;;;;;;;;6159584;23;20021;-46
2022/11/17 06:08:06;;;;;;;1.67;0.45;;;;;;;;;;6162947;23;20063;-45
2022/11/17 06:10:33;;;;;;;1.60;0.30;;;;;;;;;;6156159;23;20375;-46
2022/11/17 06:13:00;;;;;;;1.93;0.87;;;;;;;;;;6161709;23;20024;-46
2022/11/17 06:15:26;;;;;;;1.33;0.20;;;;;;;;;;6160717;23;20045;-45
2022/11/17 06:17:54;;;;;;;1.40;0.28;;;;;;;;;;6162985;23;20020;-46
2022/11/17 06:20:24;;;;;;;1.85;0.55;;;;;;;;;;6164131;23;20459;-46
2022/11/17 06:22:51;;;;;;;1.50;0.30;;;;;;;;;;6154189;23;20017;-45
2022/11/17 06:25:19;;;;;;;1.90;0.50;;;;;;;;;;6137228;23;20486;-47
2022/11/17 06:27:46;;;;;;;1.33;0.30;;;;;;;;;;6162443;23;20017;-48
2022/11/17 06:30:13;;;;;;;1.50;0.30;;;;;;;;;;6157534;23;20012;-44
2022/11/17 06:32:42;;;;;;;1.50;0.30;;;;;;;;;;6160310;23;20013;-46
2022/11/17 06:35:10;;;;;;;1.80;0.50;;;;;;;;;;6158175;23;20532;-47
2022/11/17 06:37:37;;;;;;;2.03;0.63;;;;;;;;;;6160565;23;20071;-45
2022/11/17 06:40:04;;;;;;;1.50;0.30;;;;;;;;;;6157409;23;20412;-46
2022/11/17 06:45:15;;;;;;;2.10;0.80;;;;;;;;;;6134816;23;20076;-45
2022/11/17 06:47:41;;;;;;;1.77;0.50;;;;;;;;;;6158337;23;20080;-47
2022/11/17 06:50:08;;;;;;;2.93;1.57;;;;;;;;;;6156177;23;20466;-45
2022/11/17 06:52:35;;;;;;;1.25;0.35;;;;;;;;;;6164333;23;20021;-45
2022/11/17 06:55:03;;;;;;;1.35;0.30;;;;;;;;;;6130269;23;20200;-48
2022/11/17 06:57:29;;;;;;;1.48;0.43;;;;;;;;;;6166309;23;20017;-47
2022/11/17 06:59:56;;;;;;;2.53;0.50;;;;;;;;;;6159681;23;20017;-45
2022/11/17 07:02:22;;;;;;;4.57;0.93;;;;;;;;;;6163338;23;20103;-47
2022/11/17 07:04:49;;;;;;;2.25;0.95;;;;;;;;;;6157596;23;20325;-45
2022/11/17 07:07:15;;;;;;;6.85;0.93;;;;;;;;;;6164909;23;20017;-45
2022/11/17 07:09:41;;;;;;;2.20;1.10;;;;;;;;;;6154224;23;20017;-44
2022/11/17 07:12:09;;;;;;;3.17;1.13;;;;;;;;;;6165671;23;20013;-44
2022/11/17 07:14:36;;;;;;;2.63;1.37;;;;;;;;;;6155595;23;20021;-44
2022/11/17 07:17:02;;;;;;;4.35;0.63;;;;;;;;;;6162643;23;20483;-45
2022/11/17 07:19:29;;;;;;;1.65;0.40;;;;;;;;;;6158935;23;20703;-45
2022/11/17 07:21:55;;;;;;;2.55;1.20;;;;;;;;;;6165480;23;20267;-47
2022/11/17 07:24:22;;;;;;;1.15;0.20;;;;;;;;;;6157681;23;20020;-44
2022/11/17 07:26:48;;;;;;;1.30;0.20;;;;;;;;;;6161513;23;20040;-47
2022/11/17 07:29:16;;;;;;;1.90;0.25;;;;;;;;;;6158108;23;20028;-47
2022/11/17 07:31:44;;;;;;;1.70;0.35;;;;;;;;;;6165217;23;20033;-48
2022/11/17 07:34:10;;;;;;;1.50;0.50;;;;;;;;;;6162376;23;20067;-48
2022/11/17 07:36:37;;;;;;;1.58;0.43;;;;;;;;;;6161189;23;20013;-45
2022/11/17 07:39:04;;;;;;;1.87;0.40;;;;;;;;;;6163362;23;20021;-46
2022/11/17 07:41:31;;;;;;;1.55;0.30;;;;;;;;;;6162827;23;20512;-47
2022/11/17 07:43:58;;;;;;;1.73;0.52;;;;;;;;;;6163306;23;20434;-46
2022/11/17 07:46:26;;;;;;;1.70;0.57;;;;;;;;;;6159302;23;20028;-48
2022/11/17 07:48:53;;;;;;;1.35;0.30;;;;;;;;;;6165111;23;20039;-46
2022/11/17 07:51:20;;;;;;;1.77;0.43;;;;;;;;;;6155763;23;20789;-48
2022/11/17 08:01:47;;;;;;;2.30;0.55;;;;;;;;;;5990369;23;20025;-48
2022/11/17 08:04:13;;;;;;;1.93;0.40;;;;;;;;;;6107654;23;20028;-48
2022/11/17 08:06:40;;;;;;;2.03;0.60;;;;;;;;;;6112720;23;20374;-46
2022/11/17 08:09:09;;;;;;;2.03;0.55;;;;;;;;;;6113475;23;20020;-48
2022/11/17 08:11:36;;;;;;;1.80;0.40;;;;;;;;;;6123416;23;20069;-47
2022/11/17 08:14:02;;;;;;;1.50;0.40;;;;;;;;;;6118143;23;20044;-48
2022/11/17 08:16:30;;;;;;;1.80;0.30;;;;;;;;;;6124811;23;20021;-49
2022/11/17 08:18:58;;;;;;;1.63;0.47;;;;;;;;;;6115546;23;20027;-49
2022/11/17 08:21:25;;;;;;;1.90;0.50;;;;;;;;;;6092301;23;20475;-47
2022/11/17 08:23:53;;;;;;;1.48;0.35;;;;;;;;;;6124264;23;20443;-48
2022/11/17 08:26:23;;;;;;;1.77;0.70;;;;;;;;;;6121161;23;20514;-48
2022/11/17 08:28:51;;;;;;;1.60;0.30;;;;;;;;;;6111099;23;20013;-48
2022/11/17 08:31:17;;;;;;;1.20;0.30;;;;;;;;;;6099384;23;20472;-50
2022/11/17 08:33:45;;;;;;;1.60;0.40;;;;;;;;;;6113827;23;20023;-47
2022/11/17 08:36:17;;;;;;;5.55;1.65;;;;;;;;;;6091227;23;20021;-48
2022/11/17 08:38:44;;;;;;;1.58;0.43;;;;;;;;;;6111537;23;20068;-49
2022/11/17 08:41:10;;;;;;;1.80;0.50;;;;;;;;;;6114443;23;20479;-47
2022/11/17 08:43:37;;;;;;;2.90;0.52;;;;;;;;;;6126572;23;20071;-48
2022/11/17 08:46:04;;;;;;;1.27;0.20;;;;;;;;;;6118884;23;20529;-49
2022/11/17 08:48:32;;;;;;;1.40;0.40;;;;;;;;;;6100692;23;20451;-49
2022/11/17 08:50:58;;;;;;;2.17;1.15;;;;;;;;;;6117169;23;20468;-46
2022/11/17 08:53:26;;;;;;;2.27;0.40;;;;;;;;;;6110398;23;20444;-47
2022/11/17 08:55:53;;;;;;;1.30;0.20;;;;;;;;;;6104598;23;20017;-49
2022/11/17 08:58:19;;;;;;;1.83;0.50;;;;;;;;;;6117457;23;20017;-49
2022/11/17 09:00:46;;;;;;;2.08;0.57;;;;;;;;;;6120768;23;20096;-48
2022/11/17 09:03:12;;;;;;;1.73;0.45;;;;;;;;;;6106859;23;20018;-47
2022/11/17 09:05:39;;;;;;;1.43;0.37;;;;;;;;;;6111748;23;20473;-48
2022/11/17 09:08:06;;;;;;;1.02;0.17;;;;;;;;;;6118189;23;20235;-47
2022/11/17 09:10:34;;;;;;;2.58;0.30;;;;;;;;;;6118473;23;20924;-50
2022/11/17 09:13:00;;;;;;;1.75;0.40;;;;;;;;;;6127797;23;20025;-49
2022/11/17 09:15:27;;;;;;;1.23;0.30;;;;;;;;;;6117339;23;20025;-49
2022/11/17 09:17:54;;;;;;;1.93;0.53;;;;;;;;;;6123448;23;20018;-49
2022/11/17 09:20:25;;;;;;;4.65;1.00;;;;;;;;;;6125183;23;20056;-48
2022/11/17 09:22:51;;;;;;;1.30;0.30;;;;;;;;;;6120682;23;20474;-47
2022/11/17 09:25:18;;;;;;;1.98;0.93;;;;;;;;;;6113338;23;20018;-47
2022/11/17 09:27:49;;;;;;;3.00;0.90;;;;;;;;;;6113794;23;20028;-48
2022/11/17 09:30:20;;;;;;;1.33;0.30;;;;;;;;;;6083693;23;20014;-47
2022/11/17 09:32:47;;;;;;;1.98;0.45;;;;;;;;;;6105853;23;20018;-50
2022/11/17 09:35:13;;;;;;;2.00;0.50;;;;;;;;;;6113443;23;20718;-48
2022/11/17 09:37:40;;;;;;;2.00;0.82;;;;;;;;;;6111476;23;20456;-48
2022/11/17 09:40:07;;;;;;;2.42;1.02;;;;;;;;;;6109742;23;20046;-51
2022/11/17 09:42:37;;;;;;;2.27;0.60;;;;;;;;;;6100840;23;20018;-47
2022/11/17 09:45:08;;;;;;;1.77;0.63;;;;;;;;;;6103639;23;20017;-48
2022/11/17 09:47:40;;;;;;;4.07;1.60;;;;;;;;;;6123904;23;20448;-47
2022/11/17 09:50:16;;;;;;;1.85;0.68;;;;;;;;;;6094314;23;20044;-52
2022/11/17 09:52:47;;;;;;;1.88;0.30;;;;;;;;;;6127583;23;20029;-48
2022/11/17 09:55:18;;;;;;;2.07;0.40;;;;;;;;;;6126614;23;20462;-48
2022/11/17 09:57:46;;;;;;;1.75;0.35;;;;;;;;;;6129562;23;20021;-48
2022/11/17 10:00:15;;;;;;;2.20;0.73;;;;;;;;;;6096461;23;20311;-46
2022/11/17 10:02:44;;;;;;;1.67;0.40;;;;;;;;;;6122571;23;20017;-50
2022/11/17 10:05:15;;;;;;;2.13;0.68;;;;;;;;;;6127631;23;20041;-48
2022/11/17 10:07:46;;;;;;;1.57;0.33;;;;;;;;;;6117634;23;20064;-47
2022/11/17 10:10:13;;;;;;;1.95;0.73;;;;;;;;;;6120130;23;20426;-50
2022/11/17 10:12:44;;;;;;;2.17;0.47;;;;;;;;;;6127072;23;20017;-47
2022/11/17 10:15:22;;;;;;;2.00;0.55;;;;;;;;;;6123235;23;20507;-48
2022/11/17 10:17:50;;;;;;;2.33;0.50;;;;;;;;;;6105236;23;20113;-48
2022/11/17 10:20:17;;;;;;;2.93;1.07;;;;;;;;;;6117720;23;20018;-50
2022/11/17 10:22:46;;;;;;;2.08;0.77;;;;;;;;;;6123973;23;20064;-49
2022/11/17 10:25:21;;;;;;;1.20;0.20;;;;;;;;;;6127682;23;20392;-49
2022/11/17 10:27:51;;;;;;;1.73;0.52;;;;;;;;;;6121862;23;20068;-47
2022/11/17 10:30:22;;;;;;;1.75;0.45;;;;;;;;;;6130374;23;20026;-48
2022/11/17 10:32:49;;;;;;;2.03;0.40;;;;;;;;;;6088614;23;20060;-49
2022/11/17 10:35:17;;;;;;;1.10;0.20;;;;;;;;;;6127901;23;20017;-50
2022/11/17 10:37:51;;;;;;;1.65;0.50;;;;;;;;;;6113115;23;20022;-48
2022/11/17 10:40:19;;;;;;;1.83;0.52;;;;;;;;;;6125140;23;20040;-47
2022/11/17 10:42:54;;;;;;;3.80;1.50;;;;;;;;;;6119469;23;20556;-50
2022/11/17 10:45:23;;;;;;;1.50;0.50;;;;;;;;;;6116508;23;20025;-47
2022/11/17 10:47:49;;;;;;;1.80;0.52;;;;;;;;;;6126459;23;20021;-46
2022/11/17 10:50:20;;;;;;;2.78;0.60;;;;;;;;;;6117691;23;20013;-48
2022/11/17 10:52:47;;;;;;;2.25;0.70;;;;;;;;;;6131844;23;20024;-48
2022/11/17 10:55:18;;;;;;;2.15;0.70;;;;;;;;;;6116741;23;20021;-47
2022/11/17 10:57:47;;;;;;;3.00;1.07;;;;;;;;;;6108548;23;20468;-48
2022/11/17 11:00:26;;;;;;;1.77;0.63;;;;;;;;;;6104105;23;20021;-50
2022/11/17 11:03:03;;;;;;;1.95;0.40;;;;;;;;;;6112274;23;20028;-48
2022/11/17 11:05:29;;;;;;;2.15;0.50;;;;;;;;;;6107641;23;20026;-47
2022/11/17 11:08:08;;;;;;;2.28;0.55;;;;;;;;;;6080804;23;20021;-50
2022/11/17 11:10:35;;;;;;;1.30;0.30;;;;;;;;;;6101322;23;20065;-49
2022/11/17 11:13:06;;;;;;;1.42;0.30;;;;;;;;;;6111610;23;20022;-50
2022/11/17 11:15:34;;;;;;;1.83;0.52;;;;;;;;;;6125377;23;20432;-47
2022/11/17 11:18:01;;;;;;;1.83;0.50;;;;;;;;;;6105775;23;20436;-49
2022/11/17 11:20:32;;;;;;;1.85;0.40;;;;;;;;;;6112235;23;20021;-48
2022/11/17 11:23:02;;;;;;;1.67;0.37;;;;;;;;;;6101598;23;20025;-50
2022/11/17 11:25:33;;;;;;;1.80;0.50;;;;;;;;;;6121373;23;20510;-47
2022/11/17 11:28:13;;;;;;;2.38;0.75;;;;;;;;;;6115963;23;20025;-49
2022/11/17 11:30:46;;;;;;;1.50;0.30;;;;;;;;;;6121427;23;20078;-49
2022/11/17 11:33:20;;;;;;;2.25;0.60;;;;;;;;;;6124227;23;20452;-49
2022/11/17 11:36:00;;;;;;;1.93;0.50;;;;;;;;;;6120851;23;20017;-49
2022/11/17 11:38:38;;;;;;;1.30;0.30;;;;;;;;;;6097544;23;20025;-49
2022/11/17 11:41:11;;;;;;;2.83;0.80;;;;;;;;;;6123317;23;20507;-50
2022/11/17 11:43:43;;;;;;;1.95;0.50;;;;;;;;;;6121443;23;20018;-53
2022/11/17 11:46:15;;;;;;;1.60;0.38;;;;;;;;;;6127926;23;20548;-49
2022/11/17 11:48:42;;;;;;;1.40;0.30;;;;;;;;;;6119145;23;20419;-49
2022/11/17 11:51:11;;;;;;;1.58;0.32;;;;;;;;;;6125878;23;20028;-50
2022/11/17 11:53:42;;;;;;;1.95;0.93;;;;;;;;;;6125056;23;20041;-49
2022/11/17 11:56:10;;;;;;;1.55;0.35;;;;;;;;;;6112418;23;20061;-48
2022/11/17 11:58:40;;;;;;;1.30;0.30;;;;;;;;;;6126051;23;20021;-48
2022/11/17 12:01:10;;;;;;;1.40;0.30;;;;;;;;;;6117812;23;20080;-51
2022/11/17 12:03:43;;;;;;;1.63;0.45;;;;;;;;;;6129424;23;20487;-49
2022/11/17 12:08:59;;;;;;;1.15;0.22;;;;;;;;;;6116066;23;20032;-52
2022/11/17 12:14:14;;;;;;;1.73;0.37;;;;;;;;;;6132308;23;20060;-50
2022/11/17 12:16:43;;;;;;;2.08;0.60;;;;;;;;;;6122835;23;20602;-47
2022/11/17 12:19:42;;;;;;;1.92;0.40;;;;;;;;;;6128448;23;20084;-47
2022/11/17 12:22:09;;;;;;;1.85;0.47;;;;;;;;;;6124263;23;20064;-49
2022/11/17 12:24:37;;;;;;;1.90;0.43;;;;;;;;;;6120905;23;20084;-48
2022/11/17 12:27:22;;;;;;;1.47;0.37;;;;;;;;;;6132135;23;20029;-49
2022/11/17 12:29:48;;;;;;;1.98;0.50;;;;;;;;;;6117088;23;20017;-48
2022/11/17 12:32:32;;;;;;;1.50;0.30;;;;;;;;;;6134045;23;20013;-51
2022/11/17 12:35:13;;;;;;;3.35;0.70;;;;;;;;;;6132482;23;20026;-47
2022/11/17 12:37:41;;;;;;;1.85;0.40;;;;;;;;;;6120766;23;20497;-48
2022/11/17 12:40:08;;;;;;;2.80;1.17;;;;;;;;;;6129095;23;20600;-48
2022/11/17 12:42:36;;;;;;;1.90;0.40;;;;;;;;;;6121755;23;20017;-50
2022/11/17 12:45:06;;;;;;;2.22;0.95;;;;;;;;;;6133020;23;20013;-49
2022/11/17 12:47:34;;;;;;;1.92;0.55;;;;;;;;;;6106985;23;20022;-48
2022/11/17 12:50:27;;;;;;;1.27;0.30;;;;;;;;;;6127379;23;20088;-48
2022/11/17 12:53:10;;;;;;;1.53;0.50;;;;;;;;;;6063647;23;20572;-48
2022/11/17 12:55:47;;;;;;;1.60;0.30;;;;;;;;;;6089623;23;20021;-48
2022/11/17 12:58:17;;;;;;;1.80;0.55;;;;;;;;;;6110110;23;20346;-48
2022/11/17 13:00:47;;;;;;;2.63;0.55;;;;;;;;;;6115633;23;20072;-50
2022/11/17 13:03:15;;;;;;;2.28;0.50;;;;;;;;;;6094830;23;20026;-48
2022/11/17 13:05:42;;;;;;;1.67;0.30;;;;;;;;;;6111723;23;20018;-47
2022/11/17 13:08:19;;;;;;;1.38;0.30;;;;;;;;;;6088905;23;20025;-48
2022/11/17 13:10:47;;;;;;;1.73;0.50;;;;;;;;;;6115422;23;20385;-48
2022/11/17 13:13:16;;;;;;;1.48;0.40;;;;;;;;;;6093912;23;20026;-49
2022/11/17 13:15:44;;;;;;;1.50;0.30;;;;;;;;;;6115550;23;20017;-49
2022/11/17 13:18:11;;;;;;;1.67;0.47;;;;;;;;;;6105372;23;20025;-48
2022/11/17 13:20:39;;;;;;;1.40;0.30;;;;;;;;;;6115271;23;20515;-49
2022/11/17 13:23:07;;;;;;;2.75;1.15;;;;;;;;;;6083038;23;20492;-49
2022/11/17 13:25:34;;;;;;;1.45;0.30;;;;;;;;;;6114612;23;20063;-47
2022/11/17 13:28:02;;;;;;;1.98;0.57;;;;;;;;;;6104032;23;20455;-49
2022/11/17 13:30:30;;;;;;;1.67;0.37;;;;;;;;;;6113578;23;20017;-49
2022/11/17 13:33:01;;;;;;;2.10;0.50;;;;;;;;;;6076039;23;20030;-49
2022/11/17 13:35:30;;;;;;;1.45;0.30;;;;;;;;;;6085546;23;20029;-48
2022/11/17 13:38:04;;;;;;;1.40;0.30;;;;;;;;;;6106669;23;20025;-51
2022/11/17 13:40:32;;;;;;;2.10;0.65;;;;;;;;;;6102675;23;20014;-47
2022/11/17 13:42:59;;;;;;;2.07;0.50;;;;;;;;;;6097139;23;20056;-52
2022/11/17 13:45:29;;;;;;;1.35;0.25;;;;;;;;;;6082458;23;20523;-50
2022/11/17 13:47:57;;;;;;;2.70;0.98;;;;;;;;;;6111576;23;20032;-54
2022/11/17 13:50:24;;;;;;;1.33;0.20;;;;;;;;;;6102750;23;20052;-52
2022/11/17 13:52:54;;;;;;;1.20;0.20;;;;;;;;;;6102473;23;20330;-49
2022/11/17 13:55:21;;;;;;;1.53;0.40;;;;;;;;;;6105962;23;20021;-51
2022/11/17 13:57:53;;;;;;;2.08;0.63;;;;;;;;;;6108172;23;20092;-49
2022/11/17 14:00:20;;;;;;;1.63;0.50;;;;;;;;;;6108752;23;20384;-50
2022/11/17 14:02:53;;;;;;;2.10;0.60;;;;;;;;;;6100089;23;20034;-50
2022/11/17 14:05:22;;;;;;;1.88;0.50;;;;;;;;;;6099446;23;20407;-48
2022/11/17 14:07:49;;;;;;;1.50;0.30;;;;;;;;;;6100761;23;20097;-52
2022/11/17 14:10:27;;;;;;;4.88;0.60;;;;;;;;;;6101468;23;20014;-51
2022/11/17 14:12:54;;;;;;;3.35;0.40;;;;;;;;;;6105942;23;20017;-51
2022/11/17 14:15:22;;;;;;;1.80;0.68;;;;;;;;;;6097877;23;20025;-49
2022/11/17 14:17:50;;;;;;;1.90;0.60;;;;;;;;;;6105202;23;20025;-50
2022/11/17 14:20:30;;;;;;;1.80;0.50;;;;;;;;;;6093642;23;20021;-50
2022/11/17 14:23:01;;;;;;;1.20;0.20;;;;;;;;;;6095823;23;20036;-51
2022/11/17 14:25:27;;;;;;;1.33;0.25;;;;;;;;;;6108251;23;20096;-49
2022/11/17 14:27:54;;;;;;;1.50;0.35;;;;;;;;;;6103435;23;20021;-49
2022/11/17 14:30:21;;;;;;;1.60;0.40;;;;;;;;;;6108945;23;20033;-51
2022/11/17 14:32:48;;;;;;;1.77;0.43;;;;;;;;;;6099790;23;20527;-48
2022/11/17 14:35:14;;;;;;;1.77;0.50;;;;;;;;;;6106444;23;20017;-49
2022/11/17 14:37:46;;;;;;;1.92;0.40;;;;;;;;;;6094966;23;20108;-49
2022/11/17 14:40:13;;;;;;;1.60;0.30;;;;;;;;;;6110811;23;20088;-48
2022/11/17 14:42:40;;;;;;;1.50;0.30;;;;;;;;;;6083020;23;20048;-49
2022/11/17 14:45:07;;;;;;;2.10;0.50;;;;;;;;;;6099688;23;20072;-49
2022/11/17 14:47:34;;;;;;;1.08;0.20;;;;;;;;;;6099110;23;20086;-48
2022/11/17 14:50:01;;;;;;;1.30;0.28;;;;;;;;;;6104817;23;20021;-48
2022/11/17 14:52:27;;;;;;;1.70;0.40;;;;;;;;;;6079784;23;20021;-49
2022/11/17 14:54:55;;;;;;;1.50;0.30;;;;;;;;;;6089364;23;20470;-50
2022/11/17 14:57:22;;;;;;;2.40;0.40;;;;;;;;;;6111258;23;20064;-49
2022/11/17 14:59:48;;;;;;;2.42;0.75;;;;;;;;;;6054175;23;20259;-47
2022/11/17 15:02:15;;;;;;;1.67;0.40;;;;;;;;;;6110114;23;20021;-48
2022/11/17 15:04:41;;;;;;;1.25;0.30;;;;;;;;;;6089777;23;20901;-49
2022/11/17 15:07:08;;;;;;;1.10;0.20;;;;;;;;;;6107595;23;20025;-50
2022/11/17 15:09:34;;;;;;;1.50;0.40;;;;;;;;;;6100246;23;20037;-48
2022/11/17 15:12:02;;;;;;;1.20;0.30;;;;;;;;;;6105930;23;20021;-48
2022/11/17 15:14:29;;;;;;;1.50;0.30;;;;;;;;;;6102231;23;20033;-49
2022/11/17 15:16:55;;;;;;;1.83;0.43;;;;;;;;;;6105138;23;20018;-51
2022/11/17 15:19:22;;;;;;;1.40;0.30;;;;;;;;;;6103437;23;20025;-49
2022/11/17 15:21:49;;;;;;;1.50;0.30;;;;;;;;;;6106100;23;20053;-48
2022/11/17 15:24:15;;;;;;;1.10;0.20;;;;;;;;;;6095103;23;20017;-48
2022/11/17 15:26:42;;;;;;;1.02;0.20;;;;;;;;;;6106509;23;20025;-48
2022/11/17 15:29:14;;;;;;;2.20;0.50;;;;;;;;;;6113605;23;20014;-50
2022/11/17 15:31:41;;;;;;;1.25;0.20;;;;;;;;;;6113719;23;20125;-49
2022/11/17 15:34:09;;;;;;;2.00;0.40;;;;;;;;;;6095792;23;20579;-47
2022/11/17 15:36:36;;;;;;;1.00;0.20;;;;;;;;;;6117335;23;20080;-50
2022/11/17 15:39:02;;;;;;;1.83;0.38;;;;;;;;;;6105133;23;20021;-48
2022/11/17 15:41:29;;;;;;;2.22;0.50;;;;;;;;;;6114375;23;20032;-47